sensor_id;sensor_type;location;lat;lon;timestamp;P1;durP1;ratioP1;P2;durP2;ratioP2
50683;SDS011;36654;45.042;38.994;2022-09-28T00:01:37;8.00;;;3.03;;
50683;SDS011;36654;45.042;38.994;2022-09-28T00:04:03;6.55;;;2.95;;
50683;SDS011;36654;45.042;38.994;2022-09-28T00:06:31;6.10;;;2.95;;
50683;SDS011;36654;45.042;38.994;2022-09-28T00:08:57;7.43;;;2.92;;
50683;SDS011;36654;45.042;38.994;2022-09-28T00:11:23;9.88;;;3.13;;
50683;SDS011;36654;45.042;38.994;2022-09-28T00:13:52;5.80;;;2.50;;
50683;SDS011;36654;45.042;38.994;2022-09-28T00:16:25;10.05;;;3.00;;
50683;SDS011;36654;45.042;38.994;2022-09-28T00:18:53;6.22;;;2.80;;
50683;SDS011;36654;45.042;38.994;2022-09-28T00:21:23;10.30;;;3.30;;
50683;SDS011;36654;45.042;38.994;2022-09-28T00:23:54;11.75;;;2.80;;
50683;SDS011;36654;45.042;38.994;2022-09-28T00:29:16;5.07;;;3.20;;
50683;SDS011;36654;45.042;38.994;2022-09-28T00:31:42;4.07;;;1.98;;
50683;SDS011;36654;45.042;38.994;2022-09-28T00:34:07;8.68;;;3.25;;
50683;SDS011;36654;45.042;38.994;2022-09-28T00:36:33;5.28;;;2.08;;
50683;SDS011;36654;45.042;38.994;2022-09-28T00:39:02;6.22;;;2.85;;
50683;SDS011;36654;45.042;38.994;2022-09-28T00:41:32;10.05;;;2.60;;
50683;SDS011;36654;45.042;38.994;2022-09-28T00:44:59;7.28;;;2.30;;
50683;SDS011;36654;45.042;38.994;2022-09-28T00:49:43;6.60;;;2.40;;
50683;SDS011;36654;45.042;38.994;2022-09-28T00:52:14;6.53;;;2.67;;
50683;SDS011;36654;45.042;38.994;2022-09-28T00:54:55;5.25;;;2.72;;
50683;SDS011;36654;45.042;38.994;2022-09-28T00:57:23;3.30;;;2.03;;
50683;SDS011;36654;45.042;38.994;2022-09-28T00:59:50;3.97;;;2.25;;
50683;SDS011;36654;45.042;38.994;2022-09-28T01:02:17;5.97;;;2.50;;
50683;SDS011;36654;45.042;38.994;2022-09-28T01:04:43;4.65;;;2.30;;
50683;SDS011;36654;45.042;38.994;2022-09-28T01:07:09;5.60;;;2.55;;
50683;SDS011;36654;45.042;38.994;2022-09-28T01:09:39;5.97;;;2.28;;
50683;SDS011;36654;45.042;38.994;2022-09-28T01:12:05;2.65;;;2.28;;
50683;SDS011;36654;45.042;38.994;2022-09-28T01:14:31;3.90;;;1.80;;
50683;SDS011;36654;45.042;38.994;2022-09-28T01:20:13;3.20;;;1.90;;
50683;SDS011;36654;45.042;38.994;2022-09-28T01:25:50;4.07;;;1.73;;
50683;SDS011;36654;45.042;38.994;2022-09-28T01:28:20;8.10;;;2.63;;
50683;SDS011;36654;45.042;38.994;2022-09-28T01:31:06;6.20;;;3.40;;
50683;SDS011;36654;45.042;38.994;2022-09-28T01:33:58;9.57;;;3.40;;
50683;SDS011;36654;45.042;38.994;2022-09-28T01:36:32;8.68;;;3.30;;
50683;SDS011;36654;45.042;38.994;2022-09-28T01:39:09;6.05;;;2.20;;
50683;SDS011;36654;45.042;38.994;2022-09-28T01:41:39;3.75;;;2.70;;
50683;SDS011;36654;45.042;38.994;2022-09-28T01:44:09;4.55;;;2.60;;
50683;SDS011;36654;45.042;38.994;2022-09-28T01:46:40;6.88;;;2.90;;
50683;SDS011;36654;45.042;38.994;2022-09-28T01:49:11;4.30;;;3.10;;
50683;SDS011;36654;45.042;38.994;2022-09-28T01:54:12;3.63;;;2.63;;
50683;SDS011;36654;45.042;38.994;2022-09-28T01:56:43;4.20;;;3.40;;
50683;SDS011;36654;45.042;38.994;2022-09-28T01:59:15;4.28;;;3.15;;
50683;SDS011;36654;45.042;38.994;2022-09-28T02:04:36;5.90;;;3.08;;
50683;SDS011;36654;45.042;38.994;2022-09-28T02:07:33;4.15;;;2.60;;
50683;SDS011;36654;45.042;38.994;2022-09-28T02:10:14;8.10;;;3.00;;
50683;SDS011;36654;45.042;38.994;2022-09-28T02:18:04;2.45;;;2.10;;
50683;SDS011;36654;45.042;38.994;2022-09-28T02:20:31;5.25;;;2.35;;
50683;SDS011;36654;45.042;38.994;2022-09-28T02:22:58;5.00;;;2.47;;
50683;SDS011;36654;45.042;38.994;2022-09-28T02:27:57;6.25;;;2.42;;
50683;SDS011;36654;45.042;38.994;2022-09-28T02:30:29;4.68;;;2.85;;
50683;SDS011;36654;45.042;38.994;2022-09-28T02:33:20;7.68;;;2.85;;
50683;SDS011;36654;45.042;38.994;2022-09-28T02:35:48;4.57;;;3.03;;
50683;SDS011;36654;45.042;38.994;2022-09-28T02:38:15;6.00;;;2.50;;
50683;SDS011;36654;45.042;38.994;2022-09-28T02:40:42;3.65;;;3.20;;
50683;SDS011;36654;45.042;38.994;2022-09-28T02:43:32;5.82;;;2.80;;
50683;SDS011;36654;45.042;38.994;2022-09-28T02:49:06;5.57;;;2.88;;
50683;SDS011;36654;45.042;38.994;2022-09-28T02:54:51;5.10;;;2.95;;
50683;SDS011;36654;45.042;38.994;2022-09-28T03:03:51;3.75;;;2.67;;
50683;SDS011;36654;45.042;38.994;2022-09-28T03:06:22;3.92;;;2.90;;
50683;SDS011;36654;45.042;38.994;2022-09-28T03:11:27;4.97;;;2.92;;
50683;SDS011;36654;45.042;38.994;2022-09-28T03:14:01;6.13;;;2.47;;
50683;SDS011;36654;45.042;38.994;2022-09-28T03:16:28;5.70;;;2.63;;
50683;SDS011;36654;45.042;38.994;2022-09-28T03:18:56;5.22;;;2.83;;
50683;SDS011;36654;45.042;38.994;2022-09-28T03:21:22;6.25;;;3.67;;
50683;SDS011;36654;45.042;38.994;2022-09-28T03:26:15;15.48;;;7.85;;
50683;SDS011;36654;45.042;38.994;2022-09-28T03:28:42;13.82;;;5.18;;
50683;SDS011;36654;45.042;38.994;2022-09-28T03:31:07;9.07;;;4.93;;
50683;SDS011;36654;45.042;38.994;2022-09-28T03:33:33;9.43;;;3.92;;
50683;SDS011;36654;45.042;38.994;2022-09-28T03:35:59;8.32;;;4.00;;
50683;SDS011;36654;45.042;38.994;2022-09-28T03:38:25;11.07;;;3.55;;
50683;SDS011;36654;45.042;38.994;2022-09-28T03:40:58;10.93;;;4.15;;
50683;SDS011;36654;45.042;38.994;2022-09-28T03:43:25;7.50;;;3.90;;
50683;SDS011;36654;45.042;38.994;2022-09-28T03:45:55;9.45;;;3.85;;
50683;SDS011;36654;45.042;38.994;2022-09-28T03:48:26;8.05;;;3.67;;
50683;SDS011;36654;45.042;38.994;2022-09-28T03:50:54;11.85;;;3.83;;
50683;SDS011;36654;45.042;38.994;2022-09-28T03:53:21;9.15;;;3.65;;
50683;SDS011;36654;45.042;38.994;2022-09-28T03:55:47;10.70;;;4.00;;
50683;SDS011;36654;45.042;38.994;2022-09-28T03:58:12;11.40;;;3.75;;
50683;SDS011;36654;45.042;38.994;2022-09-28T04:00:38;9.88;;;3.35;;
50683;SDS011;36654;45.042;38.994;2022-09-28T04:03:04;10.80;;;2.80;;
50683;SDS011;36654;45.042;38.994;2022-09-28T04:05:29;6.05;;;3.58;;
50683;SDS011;36654;45.042;38.994;2022-09-28T04:07:55;10.38;;;3.95;;
50683;SDS011;36654;45.042;38.994;2022-09-28T04:10:22;20.45;;;10.93;;
50683;SDS011;36654;45.042;38.994;2022-09-28T04:12:48;21.33;;;11.80;;
50683;SDS011;36654;45.042;38.994;2022-09-28T04:15:15;30.15;;;13.77;;
50683;SDS011;36654;45.042;38.994;2022-09-28T04:17:41;19.95;;;10.35;;
50683;SDS011;36654;45.042;38.994;2022-09-28T04:20:07;16.70;;;7.13;;
50683;SDS011;36654;45.042;38.994;2022-09-28T04:22:33;17.52;;;6.40;;
50683;SDS011;36654;45.042;38.994;2022-09-28T04:25:01;16.02;;;7.35;;
50683;SDS011;36654;45.042;38.994;2022-09-28T04:27:28;16.40;;;7.63;;
50683;SDS011;36654;45.042;38.994;2022-09-28T04:30:12;18.80;;;7.25;;
50683;SDS011;36654;45.042;38.994;2022-09-28T04:32:38;12.93;;;6.35;;
50683;SDS011;36654;45.042;38.994;2022-09-28T04:35:03;12.45;;;6.68;;
50683;SDS011;36654;45.042;38.994;2022-09-28T04:37:30;13.50;;;6.22;;
50683;SDS011;36654;45.042;38.994;2022-09-28T04:39:55;17.17;;;5.97;;
50683;SDS011;36654;45.042;38.994;2022-09-28T04:42:21;14.85;;;5.70;;
50683;SDS011;36654;45.042;38.994;2022-09-28T04:44:47;17.42;;;5.10;;
50683;SDS011;36654;45.042;38.994;2022-09-28T04:47:12;7.50;;;4.05;;
50683;SDS011;36654;45.042;38.994;2022-09-28T04:49:38;12.82;;;4.25;;
50683;SDS011;36654;45.042;38.994;2022-09-28T04:52:04;19.33;;;5.50;;
50683;SDS011;36654;45.042;38.994;2022-09-28T04:54:30;12.73;;;4.30;;
50683;SDS011;36654;45.042;38.994;2022-09-28T04:56:56;12.30;;;5.30;;
50683;SDS011;36654;45.042;38.994;2022-09-28T04:59:22;10.55;;;4.70;;
50683;SDS011;36654;45.042;38.994;2022-09-28T05:01:48;9.25;;;4.30;;
50683;SDS011;36654;45.042;38.994;2022-09-28T05:04:14;14.98;;;4.47;;
50683;SDS011;36654;45.042;38.994;2022-09-28T05:06:40;7.07;;;4.03;;
50683;SDS011;36654;45.042;38.994;2022-09-28T05:09:05;13.15;;;4.55;;
50683;SDS011;36654;45.042;38.994;2022-09-28T05:11:31;14.20;;;5.07;;
50683;SDS011;36654;45.042;38.994;2022-09-28T05:13:57;9.88;;;4.65;;
50683;SDS011;36654;45.042;38.994;2022-09-28T05:16:22;16.35;;;5.72;;
50683;SDS011;36654;45.042;38.994;2022-09-28T05:18:53;17.92;;;5.10;;
50683;SDS011;36654;45.042;38.994;2022-09-28T05:21:21;14.07;;;6.65;;
50683;SDS011;36654;45.042;38.994;2022-09-28T05:23:49;23.10;;;5.05;;
50683;SDS011;36654;45.042;38.994;2022-09-28T05:26:15;11.32;;;5.53;;
50683;SDS011;36654;45.042;38.994;2022-09-28T05:28:41;23.42;;;6.07;;
50683;SDS011;36654;45.042;38.994;2022-09-28T05:31:08;15.95;;;5.40;;
50683;SDS011;36654;45.042;38.994;2022-09-28T05:33:34;19.17;;;5.75;;
50683;SDS011;36654;45.042;38.994;2022-09-28T05:36:01;13.85;;;5.05;;
50683;SDS011;36654;45.042;38.994;2022-09-28T05:38:27;13.98;;;5.80;;
50683;SDS011;36654;45.042;38.994;2022-09-28T05:40:53;18.50;;;7.75;;
50683;SDS011;36654;45.042;38.994;2022-09-28T05:43:19;16.20;;;5.00;;
50683;SDS011;36654;45.042;38.994;2022-09-28T05:45:45;12.32;;;5.15;;
50683;SDS011;36654;45.042;38.994;2022-09-28T05:48:10;14.18;;;4.63;;
50683;SDS011;36654;45.042;38.994;2022-09-28T05:50:36;16.25;;;5.55;;
50683;SDS011;36654;45.042;38.994;2022-09-28T05:53:03;19.15;;;5.57;;
50683;SDS011;36654;45.042;38.994;2022-09-28T05:55:30;15.05;;;5.97;;
50683;SDS011;36654;45.042;38.994;2022-09-28T05:57:57;16.75;;;5.32;;
50683;SDS011;36654;45.042;38.994;2022-09-28T06:00:23;14.23;;;5.55;;
50683;SDS011;36654;45.042;38.994;2022-09-28T06:03:06;15.13;;;5.90;;
50683;SDS011;36654;45.042;38.994;2022-09-28T06:05:34;13.63;;;5.68;;
50683;SDS011;36654;45.042;38.994;2022-09-28T06:08:01;15.07;;;8.98;;
50683;SDS011;36654;45.042;38.994;2022-09-28T06:10:29;16.20;;;4.95;;
50683;SDS011;36654;45.042;38.994;2022-09-28T06:12:55;15.43;;;5.65;;
50683;SDS011;36654;45.042;38.994;2022-09-28T06:15:22;12.52;;;5.15;;
50683;SDS011;36654;45.042;38.994;2022-09-28T06:17:56;14.38;;;5.95;;
50683;SDS011;36654;45.042;38.994;2022-09-28T06:20:23;13.77;;;5.18;;
50683;SDS011;36654;45.042;38.994;2022-09-28T06:22:51;8.85;;;4.68;;
50683;SDS011;36654;45.042;38.994;2022-09-28T06:25:17;14.27;;;5.25;;
50683;SDS011;36654;45.042;38.994;2022-09-28T06:27:54;12.73;;;5.20;;
50683;SDS011;36654;45.042;38.994;2022-09-28T06:30:28;16.40;;;5.40;;
50683;SDS011;36654;45.042;38.994;2022-09-28T06:32:56;22.95;;;5.72;;
50683;SDS011;36654;45.042;38.994;2022-09-28T06:35:24;15.80;;;5.20;;
50683;SDS011;36654;45.042;38.994;2022-09-28T06:37:51;18.08;;;4.70;;
50683;SDS011;36654;45.042;38.994;2022-09-28T06:40:18;17.80;;;5.95;;
50683;SDS011;36654;45.042;38.994;2022-09-28T06:43:01;25.15;;;7.20;;
50683;SDS011;36654;45.042;38.994;2022-09-28T06:45:34;23.75;;;5.50;;
50683;SDS011;36654;45.042;38.994;2022-09-28T06:48:01;12.63;;;5.57;;
50683;SDS011;36654;45.042;38.994;2022-09-28T06:50:29;13.80;;;5.30;;
50683;SDS011;36654;45.042;38.994;2022-09-28T06:53:00;11.95;;;5.07;;
50683;SDS011;36654;45.042;38.994;2022-09-28T06:55:26;13.90;;;4.05;;
50683;SDS011;36654;45.042;38.994;2022-09-28T06:57:56;12.77;;;5.18;;
50683;SDS011;36654;45.042;38.994;2022-09-28T07:00:26;13.00;;;5.43;;
50683;SDS011;36654;45.042;38.994;2022-09-28T07:02:53;8.15;;;3.95;;
50683;SDS011;36654;45.042;38.994;2022-09-28T07:05:19;8.63;;;4.45;;
50683;SDS011;36654;45.042;38.994;2022-09-28T07:07:51;10.27;;;3.97;;
50683;SDS011;36654;45.042;38.994;2022-09-28T07:10:20;20.13;;;4.50;;
50683;SDS011;36654;45.042;38.994;2022-09-28T07:12:52;13.30;;;4.82;;
50683;SDS011;36654;45.042;38.994;2022-09-28T07:15:19;10.10;;;4.10;;
50683;SDS011;36654;45.042;38.994;2022-09-28T07:17:45;11.90;;;4.80;;
50683;SDS011;36654;45.042;38.994;2022-09-28T07:20:11;11.90;;;4.32;;
50683;SDS011;36654;45.042;38.994;2022-09-28T07:22:37;8.68;;;4.40;;
50683;SDS011;36654;45.042;38.994;2022-09-28T07:25:06;12.40;;;4.25;;
50683;SDS011;36654;45.042;38.994;2022-09-28T07:27:32;19.75;;;4.38;;
50683;SDS011;36654;45.042;38.994;2022-09-28T07:29:59;12.93;;;4.57;;
50683;SDS011;36654;45.042;38.994;2022-09-28T07:32:25;14.35;;;4.80;;
50683;SDS011;36654;45.042;38.994;2022-09-28T07:34:51;20.33;;;5.10;;
50683;SDS011;36654;45.042;38.994;2022-09-28T07:37:20;13.05;;;4.60;;
50683;SDS011;36654;45.042;38.994;2022-09-28T07:39:48;13.32;;;7.55;;
50683;SDS011;36654;45.042;38.994;2022-09-28T07:42:32;13.23;;;5.18;;
50683;SDS011;36654;45.042;38.994;2022-09-28T07:44:58;11.88;;;5.07;;
50683;SDS011;36654;45.042;38.994;2022-09-28T07:47:24;16.23;;;5.18;;
50683;SDS011;36654;45.042;38.994;2022-09-28T07:49:54;13.18;;;5.88;;
50683;SDS011;36654;45.042;38.994;2022-09-28T07:52:23;9.10;;;4.60;;
50683;SDS011;36654;45.042;38.994;2022-09-28T07:54:51;12.45;;;5.07;;
50683;SDS011;36654;45.042;38.994;2022-09-28T07:57:17;19.80;;;6.68;;
50683;SDS011;36654;45.042;38.994;2022-09-28T07:59:44;19.40;;;5.65;;
50683;SDS011;36654;45.042;38.994;2022-09-28T08:02:11;18.15;;;4.97;;
50683;SDS011;36654;45.042;38.994;2022-09-28T08:04:37;17.60;;;5.43;;
50683;SDS011;36654;45.042;38.994;2022-09-28T08:07:06;19.27;;;5.43;;
50683;SDS011;36654;45.042;38.994;2022-09-28T08:09:33;16.80;;;4.93;;
50683;SDS011;36654;45.042;38.994;2022-09-28T08:11:59;26.20;;;5.85;;
50683;SDS011;36654;45.042;38.994;2022-09-28T08:14:25;21.42;;;6.07;;
50683;SDS011;36654;45.042;38.994;2022-09-28T08:16:51;19.25;;;6.93;;
50683;SDS011;36654;45.042;38.994;2022-09-28T08:19:17;25.38;;;10.25;;
50683;SDS011;36654;45.042;38.994;2022-09-28T08:21:43;30.13;;;10.50;;
50683;SDS011;36654;45.042;38.994;2022-09-28T08:24:15;26.92;;;9.40;;
50683;SDS011;36654;45.042;38.994;2022-09-28T08:26:42;24.55;;;8.73;;
50683;SDS011;36654;45.042;38.994;2022-09-28T08:29:08;14.68;;;6.93;;
50683;SDS011;36654;45.042;38.994;2022-09-28T08:31:35;14.20;;;7.07;;
50683;SDS011;36654;45.042;38.994;2022-09-28T08:34:00;14.68;;;6.32;;
50683;SDS011;36654;45.042;38.994;2022-09-28T08:36:26;12.10;;;6.32;;
50683;SDS011;36654;45.042;38.994;2022-09-28T08:38:52;13.88;;;5.90;;
50683;SDS011;36654;45.042;38.994;2022-09-28T08:44:19;19.25;;;6.70;;
50683;SDS011;36654;45.042;38.994;2022-09-28T08:47:02;22.00;;;7.10;;
50683;SDS011;36654;45.042;38.994;2022-09-28T08:49:39;24.10;;;8.30;;
50683;SDS011;36654;45.042;38.994;2022-09-28T08:52:29;20.00;;;6.75;;
50683;SDS011;36654;45.042;38.994;2022-09-28T08:57:42;16.77;;;5.82;;
50683;SDS011;36654;45.042;38.994;2022-09-28T09:03:05;25.95;;;7.05;;
50683;SDS011;36654;45.042;38.994;2022-09-28T09:06:01;21.10;;;6.40;;
50683;SDS011;36654;45.042;38.994;2022-09-28T09:13:52;13.45;;;5.80;;
50683;SDS011;36654;45.042;38.994;2022-09-28T09:16:51;19.23;;;5.30;;
50683;SDS011;36654;45.042;38.994;2022-09-28T09:22:29;15.35;;;6.00;;
50683;SDS011;36654;45.042;38.994;2022-09-28T09:25:15;12.70;;;6.05;;
50683;SDS011;36654;45.042;38.994;2022-09-28T09:30:17;19.00;;;7.03;;
50683;SDS011;36654;45.042;38.994;2022-09-28T09:35:44;24.50;;;10.80;;
50683;SDS011;36654;45.042;38.994;2022-09-28T09:49:11;16.50;;;6.93;;
50683;SDS011;36654;45.042;38.994;2022-09-28T09:57:09;18.80;;;6.97;;
50683;SDS011;36654;45.042;38.994;2022-09-28T09:59:39;15.38;;;6.10;;
50683;SDS011;36654;45.042;38.994;2022-09-28T10:02:11;18.67;;;6.57;;
50683;SDS011;36654;45.042;38.994;2022-09-28T10:04:44;18.02;;;6.35;;
50683;SDS011;36654;45.042;38.994;2022-09-28T10:07:19;17.38;;;5.88;;
50683;SDS011;36654;45.042;38.994;2022-09-28T10:09:48;24.83;;;5.75;;
50683;SDS011;36654;45.042;38.994;2022-09-28T10:12:20;13.60;;;5.82;;
50683;SDS011;36654;45.042;38.994;2022-09-28T10:14:47;16.83;;;6.10;;
50683;SDS011;36654;45.042;38.994;2022-09-28T10:17:14;12.40;;;6.43;;
50683;SDS011;36654;45.042;38.994;2022-09-28T10:19:44;20.48;;;5.93;;
50683;SDS011;36654;45.042;38.994;2022-09-28T10:22:12;21.27;;;6.90;;
50683;SDS011;36654;45.042;38.994;2022-09-28T10:24:45;15.10;;;6.15;;
50683;SDS011;36654;45.042;38.994;2022-09-28T10:27:17;15.00;;;7.18;;
50683;SDS011;36654;45.042;38.994;2022-09-28T10:30:02;12.57;;;5.95;;
50683;SDS011;36654;45.042;38.994;2022-09-28T10:32:38;17.60;;;5.97;;
50683;SDS011;36654;45.042;38.994;2022-09-28T10:35:26;18.40;;;6.65;;
50683;SDS011;36654;45.042;38.994;2022-09-28T10:37:58;17.08;;;4.93;;
50683;SDS011;36654;45.042;38.994;2022-09-28T10:43:28;9.27;;;5.38;;
50683;SDS011;36654;45.042;38.994;2022-09-28T10:48:28;14.88;;;5.82;;
50683;SDS011;36654;45.042;38.994;2022-09-28T10:51:06;16.48;;;6.03;;
50683;SDS011;36654;45.042;38.994;2022-09-28T10:53:32;13.98;;;5.60;;
50683;SDS011;36654;45.042;38.994;2022-09-28T10:56:20;16.35;;;7.32;;
50683;SDS011;36654;45.042;38.994;2022-09-28T10:58:47;13.60;;;6.65;;
50683;SDS011;36654;45.042;38.994;2022-09-28T11:01:16;15.77;;;7.85;;
50683;SDS011;36654;45.042;38.994;2022-09-28T11:03:55;17.13;;;7.10;;
50683;SDS011;36654;45.042;38.994;2022-09-28T11:06:27;17.95;;;6.35;;
50683;SDS011;36654;45.042;38.994;2022-09-28T11:09:03;11.77;;;6.30;;
50683;SDS011;36654;45.042;38.994;2022-09-28T11:11:46;17.13;;;6.75;;
50683;SDS011;36654;45.042;38.994;2022-09-28T11:14:25;15.27;;;7.20;;
50683;SDS011;36654;45.042;38.994;2022-09-28T11:19:43;16.80;;;6.88;;
50683;SDS011;36654;45.042;38.994;2022-09-28T11:32:54;14.38;;;5.22;;
50683;SDS011;36654;45.042;38.994;2022-09-28T11:35:44;12.65;;;4.60;;
50683;SDS011;36654;45.042;38.994;2022-09-28T11:38:17;9.75;;;5.03;;
50683;SDS011;36654;45.042;38.994;2022-09-28T11:51:51;14.43;;;5.60;;
50683;SDS011;36654;45.042;38.994;2022-09-28T11:54:25;9.77;;;4.70;;
50683;SDS011;36654;45.042;38.994;2022-09-28T11:56:58;18.63;;;5.65;;
50683;SDS011;36654;45.042;38.994;2022-09-28T11:59:31;12.35;;;5.18;;
50683;SDS011;36654;45.042;38.994;2022-09-28T12:02:22;9.15;;;4.80;;
50683;SDS011;36654;45.042;38.994;2022-09-28T12:05:01;8.52;;;4.30;;
50683;SDS011;36654;45.042;38.994;2022-09-28T12:07:46;7.97;;;4.85;;
50683;SDS011;36654;45.042;38.994;2022-09-28T12:13:13;7.43;;;4.13;;
50683;SDS011;36654;45.042;38.994;2022-09-28T12:15:50;8.32;;;3.63;;
50683;SDS011;36654;45.042;38.994;2022-09-28T12:18:22;8.98;;;3.45;;
50683;SDS011;36654;45.042;38.994;2022-09-28T12:21:06;9.60;;;3.88;;
50683;SDS011;36654;45.042;38.994;2022-09-28T12:23:33;9.55;;;3.38;;
50683;SDS011;36654;45.042;38.994;2022-09-28T12:26:01;7.55;;;3.45;;
50683;SDS011;36654;45.042;38.994;2022-09-28T12:31:16;7.55;;;3.55;;
50683;SDS011;36654;45.042;38.994;2022-09-28T12:33:48;10.30;;;3.83;;
50683;SDS011;36654;45.042;38.994;2022-09-28T12:47:16;9.05;;;3.47;;
50683;SDS011;36654;45.042;38.994;2022-09-28T13:00:29;5.13;;;3.28;;
50683;SDS011;36654;45.042;38.994;2022-09-28T13:08:32;5.65;;;3.42;;
50683;SDS011;36654;45.042;38.994;2022-09-28T13:14:30;6.13;;;3.92;;
50683;SDS011;36654;45.042;38.994;2022-09-28T13:17:15;9.38;;;4.15;;
50683;SDS011;36654;45.042;38.994;2022-09-28T13:22:48;4.90;;;2.88;;
50683;SDS011;36654;45.042;38.994;2022-09-28T13:25:40;9.02;;;3.60;;
50683;SDS011;36654;45.042;38.994;2022-09-28T13:28:12;8.02;;;3.63;;
50683;SDS011;36654;45.042;38.994;2022-09-28T13:30:40;5.93;;;3.67;;
50683;SDS011;36654;45.042;38.994;2022-09-28T13:33:12;9.43;;;3.25;;
50683;SDS011;36654;45.042;38.994;2022-09-28T13:35:43;4.68;;;2.88;;
50683;SDS011;36654;45.042;38.994;2022-09-28T13:49:48;8.18;;;3.10;;
50683;SDS011;36654;45.042;38.994;2022-09-28T13:55:21;8.35;;;4.25;;
50683;SDS011;36654;45.042;38.994;2022-09-28T13:58:14;9.23;;;4.20;;
50683;SDS011;36654;45.042;38.994;2022-09-28T14:00:48;11.00;;;4.57;;
50683;SDS011;36654;45.042;38.994;2022-09-28T14:11:29;8.98;;;4.05;;
50683;SDS011;36654;45.042;38.994;2022-09-28T14:16:35;8.63;;;3.72;;
50683;SDS011;36654;45.042;38.994;2022-09-28T14:19:06;7.15;;;3.65;;
50683;SDS011;36654;45.042;38.994;2022-09-28T14:24:59;7.47;;;3.40;;
50683;SDS011;36654;45.042;38.994;2022-09-28T14:29:37;8.82;;;3.78;;
50683;SDS011;36654;45.042;38.994;2022-09-28T14:32:25;8.00;;;3.65;;
50683;SDS011;36654;45.042;38.994;2022-09-28T14:35:00;8.60;;;3.78;;
50683;SDS011;36654;45.042;38.994;2022-09-28T14:37:29;4.90;;;3.30;;
50683;SDS011;36654;45.042;38.994;2022-09-28T14:43:25;6.28;;;3.42;;
50683;SDS011;36654;45.042;38.994;2022-09-28T14:53:49;5.95;;;3.38;;
50683;SDS011;36654;45.042;38.994;2022-09-28T14:56:16;12.10;;;4.80;;
50683;SDS011;36654;45.042;38.994;2022-09-28T14:58:43;9.40;;;4.97;;
50683;SDS011;36654;45.042;38.994;2022-09-28T15:01:15;9.68;;;4.38;;
50683;SDS011;36654;45.042;38.994;2022-09-28T15:03:57;10.48;;;4.97;;
50683;SDS011;36654;45.042;38.994;2022-09-28T15:06:49;11.93;;;5.40;;
50683;SDS011;36654;45.042;38.994;2022-09-28T15:11:50;10.63;;;3.88;;
50683;SDS011;36654;45.042;38.994;2022-09-28T15:14:21;11.30;;;4.25;;
50683;SDS011;36654;45.042;38.994;2022-09-28T15:16:47;5.88;;;3.45;;
50683;SDS011;36654;45.042;38.994;2022-09-28T15:19:27;7.97;;;3.83;;
50683;SDS011;36654;45.042;38.994;2022-09-28T15:22:06;8.35;;;4.45;;
50683;SDS011;36654;45.042;38.994;2022-09-28T15:24:44;9.85;;;5.25;;
50683;SDS011;36654;45.042;38.994;2022-09-28T15:27:19;13.63;;;6.97;;
50683;SDS011;36654;45.042;38.994;2022-09-28T15:29:59;17.17;;;6.28;;
50683;SDS011;36654;45.042;38.994;2022-09-28T15:32:26;9.25;;;4.40;;
50683;SDS011;36654;45.042;38.994;2022-09-28T15:34:54;7.45;;;4.35;;
50683;SDS011;36654;45.042;38.994;2022-09-28T15:37:25;8.40;;;3.95;;
50683;SDS011;36654;45.042;38.994;2022-09-28T15:39:53;6.65;;;3.80;;
50683;SDS011;36654;45.042;38.994;2022-09-28T15:42:21;6.03;;;3.88;;
50683;SDS011;36654;45.042;38.994;2022-09-28T15:47:34;5.25;;;3.40;;
50683;SDS011;36654;45.042;38.994;2022-09-28T15:55:42;5.00;;;3.58;;
50683;SDS011;36654;45.042;38.994;2022-09-28T16:00:39;7.13;;;3.78;;
50683;SDS011;36654;45.042;38.994;2022-09-28T16:08:16;4.20;;;3.63;;
50683;SDS011;36654;45.042;38.994;2022-09-28T16:10:53;6.20;;;3.67;;
50683;SDS011;36654;45.042;38.994;2022-09-28T16:16:19;4.50;;;3.22;;
50683;SDS011;36654;45.042;38.994;2022-09-28T16:18:50;8.25;;;3.72;;
50683;SDS011;36654;45.042;38.994;2022-09-28T16:21:22;5.50;;;3.35;;
50683;SDS011;36654;45.042;38.994;2022-09-28T16:23:53;5.35;;;2.75;;
50683;SDS011;36654;45.042;38.994;2022-09-28T16:26:32;10.55;;;4.90;;
50683;SDS011;36654;45.042;38.994;2022-09-28T16:29:14;6.10;;;3.10;;
50683;SDS011;36654;45.042;38.994;2022-09-28T16:35:13;5.30;;;3.47;;
50683;SDS011;36654;45.042;38.994;2022-09-28T16:37:42;7.70;;;4.78;;
50683;SDS011;36654;45.042;38.994;2022-09-28T16:40:08;6.30;;;3.65;;
50683;SDS011;36654;45.042;38.994;2022-09-28T16:42:35;9.02;;;3.85;;
50683;SDS011;36654;45.042;38.994;2022-09-28T16:45:02;8.38;;;4.00;;
50683;SDS011;36654;45.042;38.994;2022-09-28T16:47:29;6.03;;;4.03;;
50683;SDS011;36654;45.042;38.994;2022-09-28T16:49:59;8.95;;;4.13;;
50683;SDS011;36654;45.042;38.994;2022-09-28T16:52:26;8.43;;;4.30;;
50683;SDS011;36654;45.042;38.994;2022-09-28T16:55:12;8.52;;;4.25;;
50683;SDS011;36654;45.042;38.994;2022-09-28T16:57:44;10.23;;;4.50;;
50683;SDS011;36654;45.042;38.994;2022-09-28T17:00:18;9.05;;;4.40;;
50683;SDS011;36654;45.042;38.994;2022-09-28T17:02:48;7.60;;;4.47;;
50683;SDS011;36654;45.042;38.994;2022-09-28T17:05:15;9.02;;;4.78;;
50683;SDS011;36654;45.042;38.994;2022-09-28T17:07:43;8.52;;;4.45;;
50683;SDS011;36654;45.042;38.994;2022-09-28T17:10:28;7.40;;;4.70;;
50683;SDS011;36654;45.042;38.994;2022-09-28T17:13:03;8.10;;;4.07;;
50683;SDS011;36654;45.042;38.994;2022-09-28T17:17:54;10.00;;;4.25;;
50683;SDS011;36654;45.042;38.994;2022-09-28T17:20:21;8.55;;;4.03;;
50683;SDS011;36654;45.042;38.994;2022-09-28T17:22:51;5.50;;;3.63;;
50683;SDS011;36654;45.042;38.994;2022-09-28T17:25:18;12.02;;;4.18;;
50683;SDS011;36654;45.042;38.994;2022-09-28T17:27:46;14.10;;;5.00;;
50683;SDS011;36654;45.042;38.994;2022-09-28T17:30:13;9.82;;;4.25;;
50683;SDS011;36654;45.042;38.994;2022-09-28T17:32:40;9.20;;;4.28;;
50683;SDS011;36654;45.042;38.994;2022-09-28T17:35:12;7.82;;;4.30;;
50683;SDS011;36654;45.042;38.994;2022-09-28T17:37:42;8.13;;;4.80;;
50683;SDS011;36654;45.042;38.994;2022-09-28T17:40:15;14.25;;;7.93;;
50683;SDS011;36654;45.042;38.994;2022-09-28T17:42:48;11.00;;;3.90;;
50683;SDS011;36654;45.042;38.994;2022-09-28T17:45:14;20.67;;;10.27;;
50683;SDS011;36654;45.042;38.994;2022-09-28T17:47:40;11.90;;;6.05;;
50683;SDS011;36654;45.042;38.994;2022-09-28T17:50:18;9.32;;;4.00;;
50683;SDS011;36654;45.042;38.994;2022-09-28T17:52:46;8.20;;;4.03;;
50683;SDS011;36654;45.042;38.994;2022-09-28T17:55:18;7.68;;;4.05;;
50683;SDS011;36654;45.042;38.994;2022-09-28T17:57:45;8.27;;;3.70;;
50683;SDS011;36654;45.042;38.994;2022-09-28T18:00:11;7.38;;;3.72;;
50683;SDS011;36654;45.042;38.994;2022-09-28T18:02:38;7.85;;;3.95;;
50683;SDS011;36654;45.042;38.994;2022-09-28T18:05:04;8.43;;;4.75;;
50683;SDS011;36654;45.042;38.994;2022-09-28T18:07:30;4.95;;;3.40;;
50683;SDS011;36654;45.042;38.994;2022-09-28T18:09:58;6.30;;;4.00;;
50683;SDS011;36654;45.042;38.994;2022-09-28T18:12:24;9.43;;;3.63;;
50683;SDS011;36654;45.042;38.994;2022-09-28T18:14:51;6.97;;;4.10;;
50683;SDS011;36654;45.042;38.994;2022-09-28T18:17:17;9.18;;;3.88;;
50683;SDS011;36654;45.042;38.994;2022-09-28T18:19:43;8.20;;;3.70;;
50683;SDS011;36654;45.042;38.994;2022-09-28T18:22:08;10.85;;;4.70;;
50683;SDS011;36654;45.042;38.994;2022-09-28T18:24:34;12.55;;;5.95;;
50683;SDS011;36654;45.042;38.994;2022-09-28T18:27:00;8.95;;;4.03;;
50683;SDS011;36654;45.042;38.994;2022-09-28T18:29:26;7.57;;;3.80;;